sensor_id;sensor_type;location;lat;lon;timestamp;pressure;altitude;pressure_sealevel;temperature;humidity
73457;BME280;61691;53.072;6.582;2023-12-07T00:02:03;101883.34;;;3.27;85.07
73457;BME280;61691;53.072;6.582;2023-12-07T00:04:30;101893.09;;;3.24;84.80
73457;BME280;61691;53.072;6.582;2023-12-07T00:06:57;101893.84;;;3.27;84.79
73457;BME280;61691;53.072;6.582;2023-12-07T00:09:24;101880.06;;;3.22;85.16
73457;BME280;61691;53.072;6.582;2023-12-07T00:11:51;101888.59;;;3.27;85.34
73457;BME280;61691;53.072;6.582;2023-12-07T00:14:18;101898.00;;;3.31;85.33
73457;BME280;61691;53.072;6.582;2023-12-07T00:16:45;101896.19;;;3.33;85.08
73457;BME280;61691;53.072;6.582;2023-12-07T00:19:11;101898.81;;;3.33;84.84
73457;BME280;61691;53.072;6.582;2023-12-07T00:21:38;101867.03;;;3.21;85.01
73457;BME280;61691;53.072;6.582;2023-12-07T00:24:05;101877.25;;;3.27;84.79
73457;BME280;61691;53.072;6.582;2023-12-07T00:26:32;101827.00;;;2.95;85.26
73457;BME280;61691;53.072;6.582;2023-12-07T00:28:58;101873.84;;;3.25;84.96
73457;BME280;61691;53.072;6.582;2023-12-07T00:31:25;101877.19;;;3.28;84.88
73457;BME280;61691;53.072;6.582;2023-12-07T00:33:52;101848.41;;;3.06;84.86
73457;BME280;61691;53.072;6.582;2023-12-07T00:36:19;101865.38;;;3.18;84.89
73457;BME280;61691;53.072;6.582;2023-12-07T00:38:46;101851.72;;;3.10;85.08
73457;BME280;61691;53.072;6.582;2023-12-07T00:41:13;101857.78;;;3.12;84.74
73457;BME280;61691;53.072;6.582;2023-12-07T00:43:40;101859.47;;;3.13;84.88
73457;BME280;61691;53.072;6.582;2023-12-07T00:46:07;101888.47;;;3.30;84.98
73457;BME280;61691;53.072;6.582;2023-12-07T00:48:34;101885.97;;;3.27;84.76
73457;BME280;61691;53.072;6.582;2023-12-07T00:51:01;101892.13;;;3.26;84.85
73457;BME280;61691;53.072;6.582;2023-12-07T00:53:29;101886.88;;;3.26;85.18
73457;BME280;61691;53.072;6.582;2023-12-07T00:55:55;101874.94;;;3.19;84.90
73457;BME280;61691;53.072;6.582;2023-12-07T00:58:22;101859.53;;;3.11;85.04
73457;BME280;61691;53.072;6.582;2023-12-07T01:00:49;101863.97;;;3.09;84.71
73457;BME280;61691;53.072;6.582;2023-12-07T01:03:16;101894.75;;;3.26;84.87
73457;BME280;61691;53.072;6.582;2023-12-07T01:05:43;101874.41;;;3.11;84.91
73457;BME280;61691;53.072;6.582;2023-12-07T01:08:10;101899.31;;;3.21;84.82
73457;BME280;61691;53.072;6.582;2023-12-07T01:10:36;101883.16;;;3.10;85.00
73457;BME280;61691;53.072;6.582;2023-12-07T01:13:03;101905.41;;;3.22;84.65
73457;BME280;61691;53.072;6.582;2023-12-07T01:15:30;101909.81;;;3.21;84.56
73457;BME280;61691;53.072;6.582;2023-12-07T01:17:57;101902.41;;;3.09;84.80
73457;BME280;61691;53.072;6.582;2023-12-07T01:20:23;101910.06;;;3.15;84.62
73457;BME280;61691;53.072;6.582;2023-12-07T01:22:50;101925.31;;;3.26;84.74
73457;BME280;61691;53.072;6.582;2023-12-07T01:25:18;101915.84;;;3.23;84.83
73457;BME280;61691;53.072;6.582;2023-12-07T01:27:49;101909.81;;;3.21;84.79
73457;BME280;61691;53.072;6.582;2023-12-07T01:30:15;101897.00;;;3.14;84.81
73457;BME280;61691;53.072;6.582;2023-12-07T01:32:43;101901.25;;;3.16;84.66
73457;BME280;61691;53.072;6.582;2023-12-07T01:35:10;101909.66;;;3.24;85.17
73457;BME280;61691;53.072;6.582;2023-12-07T01:37:37;101908.81;;;3.24;84.94
73457;BME280;61691;53.072;6.582;2023-12-07T01:40:05;101921.75;;;3.28;84.80
73457;BME280;61691;53.072;6.582;2023-12-07T01:42:37;101928.56;;;3.32;84.74
73457;BME280;61691;53.072;6.582;2023-12-07T01:45:07;101922.75;;;3.24;84.98
73457;BME280;61691;53.072;6.582;2023-12-07T01:47:35;101933.78;;;3.32;84.97
73457;BME280;61691;53.072;6.582;2023-12-07T01:50:03;101928.69;;;3.29;84.97
73457;BME280;61691;53.072;6.582;2023-12-07T01:52:31;101913.53;;;3.16;84.92
73457;BME280;61691;53.072;6.582;2023-12-07T01:54:59;101913.44;;;3.17;84.62
73457;BME280;61691;53.072;6.582;2023-12-07T01:57:26;101933.94;;;3.29;84.86
73457;BME280;61691;53.072;6.582;2023-12-07T01:59:53;101903.47;;;3.05;84.52
73457;BME280;61691;53.072;6.582;2023-12-07T02:02:20;101894.69;;;3.06;84.34
73457;BME280;61691;53.072;6.582;2023-12-07T02:04:48;101911.97;;;3.10;84.64
73457;BME280;61691;53.072;6.582;2023-12-07T02:07:15;101924.66;;;3.21;84.44
73457;BME280;61691;53.072;6.582;2023-12-07T02:09:42;101919.59;;;3.16;84.84
73457;BME280;61691;53.072;6.582;2023-12-07T02:12:09;101919.69;;;3.15;84.58
73457;BME280;61691;53.072;6.582;2023-12-07T02:14:36;101910.41;;;3.06;84.39
73457;BME280;61691;53.072;6.582;2023-12-07T02:22:32;101930.03;;;3.18;84.87
73457;BME280;61691;53.072;6.582;2023-12-07T02:25:07;101930.88;;;3.18;84.61
73457;BME280;61691;53.072;6.582;2023-12-07T02:27:44;101933.50;;;3.18;85.02
73457;BME280;61691;53.072;6.582;2023-12-07T02:30:12;101906.94;;;3.05;84.68
73457;BME280;61691;53.072;6.582;2023-12-07T02:32:42;101920.53;;;3.15;84.90
73457;BME280;61691;53.072;6.582;2023-12-07T02:35:10;101929.16;;;3.17;84.88
73457;BME280;61691;53.072;6.582;2023-12-07T02:37:49;101928.41;;;3.15;84.96
73457;BME280;61691;53.072;6.582;2023-12-07T02:40:24;101908.81;;;3.02;84.95
73457;BME280;61691;53.072;6.582;2023-12-07T02:42:55;101907.94;;;3.01;84.49
73457;BME280;61691;53.072;6.582;2023-12-07T02:45:23;101854.34;;;2.66;84.34
73457;BME280;61691;53.072;6.582;2023-12-07T02:47:49;101911.63;;;2.97;84.44
73457;BME280;61691;53.072;6.582;2023-12-07T02:50:16;101925.22;;;3.07;84.57
73457;BME280;61691;53.072;6.582;2023-12-07T02:52:43;101930.47;;;3.07;84.74
73457;BME280;61691;53.072;6.582;2023-12-07T02:55:10;101907.34;;;2.95;84.78
73457;BME280;61691;53.072;6.582;2023-12-07T02:57:37;101936.31;;;3.14;84.42
73457;BME280;61691;53.072;6.582;2023-12-07T03:00:05;101931.13;;;3.12;84.84
73457;BME280;61691;53.072;6.582;2023-12-07T03:02:38;101910.81;;;2.95;84.60
73457;BME280;61691;53.072;6.582;2023-12-07T03:05:05;101913.28;;;3.00;84.52
73457;BME280;61691;53.072;6.582;2023-12-07T03:07:34;101943.31;;;3.13;84.72
73457;BME280;61691;53.072;6.582;2023-12-07T03:10:01;101919.53;;;2.96;84.46
73457;BME280;61691;53.072;6.582;2023-12-07T03:12:28;101912.34;;;3.01;84.83
73457;BME280;61691;53.072;6.582;2023-12-07T03:14:54;101900.53;;;2.91;84.53
73457;BME280;61691;53.072;6.582;2023-12-07T03:17:21;101907.25;;;2.98;84.78
73457;BME280;61691;53.072;6.582;2023-12-07T03:19:48;101925.06;;;3.10;84.51
73457;BME280;61691;53.072;6.582;2023-12-07T03:22:15;101931.22;;;3.09;84.66
73457;BME280;61691;53.072;6.582;2023-12-07T03:24:46;101928.69;;;3.07;84.75
73457;BME280;61691;53.072;6.582;2023-12-07T03:27:14;101869.72;;;2.76;84.86
73457;BME280;61691;53.072;6.582;2023-12-07T03:29:41;101929.41;;;3.11;84.40
73457;BME280;61691;53.072;6.582;2023-12-07T03:32:08;101908.19;;;2.95;84.59
73457;BME280;61691;53.072;6.582;2023-12-07T03:34:34;101891.16;;;2.85;84.40
73457;BME280;61691;53.072;6.582;2023-12-07T03:37:01;101922.59;;;3.07;84.44
73457;BME280;61691;53.072;6.582;2023-12-07T03:39:29;101924.41;;;3.05;84.75
73457;BME280;61691;53.072;6.582;2023-12-07T03:41:59;101903.09;;;2.92;84.61
73457;BME280;61691;53.072;6.582;2023-12-07T03:44:26;101909.19;;;2.93;84.70
73457;BME280;61691;53.072;6.582;2023-12-07T03:46:55;101941.72;;;3.09;84.35
73457;BME280;61691;53.072;6.582;2023-12-07T03:49:22;101916.09;;;2.94;84.51
73457;BME280;61691;53.072;6.582;2023-12-07T03:51:48;101943.56;;;3.07;84.62
73457;BME280;61691;53.072;6.582;2023-12-07T03:54:15;101909.41;;;2.87;84.38
73457;BME280;61691;53.072;6.582;2023-12-07T03:56:42;101933.53;;;2.95;84.57
73457;BME280;61691;53.072;6.582;2023-12-07T03:59:09;101940.53;;;2.94;84.19
73457;BME280;61691;53.072;6.582;2023-12-07T04:01:36;101950.97;;;2.96;84.64
73457;BME280;61691;53.072;6.582;2023-12-07T04:04:03;101927.06;;;2.82;84.35
73457;BME280;61691;53.072;6.582;2023-12-07T04:06:31;101898.19;;;2.61;84.34
73457;BME280;61691;53.072;6.582;2023-12-07T04:08:58;101924.63;;;2.77;84.29
73457;BME280;61691;53.072;6.582;2023-12-07T04:11:25;101942.88;;;2.79;84.11
73457;BME280;61691;53.072;6.582;2023-12-07T04:13:51;101931.78;;;2.72;84.14
73457;BME280;61691;53.072;6.582;2023-12-07T04:16:18;101948.25;;;2.76;84.51
73457;BME280;61691;53.072;6.582;2023-12-07T04:18:45;101915.22;;;2.48;84.47
73457;BME280;61691;53.072;6.582;2023-12-07T04:21:12;101949.41;;;2.68;84.17
73457;BME280;61691;53.072;6.582;2023-12-07T04:23:39;101906.28;;;2.32;84.10
73457;BME280;61691;53.072;6.582;2023-12-07T04:26:06;101949.06;;;2.54;84.15
73457;BME280;61691;53.072;6.582;2023-12-07T04:28:32;101936.34;;;2.44;83.81
73457;BME280;61691;53.072;6.582;2023-12-07T04:30:59;101947.50;;;2.49;84.19
73457;BME280;61691;53.072;6.582;2023-12-07T04:33:26;101947.56;;;2.47;84.29
73457;BME280;61691;53.072;6.582;2023-12-07T04:35:53;101925.53;;;2.29;84.43
73457;BME280;61691;53.072;6.582;2023-12-07T04:38:19;101945.25;;;2.40;84.33
73457;BME280;61691;53.072;6.582;2023-12-07T04:40:46;101949.72;;;2.36;84.38
73457;BME280;61691;53.072;6.582;2023-12-07T04:43:13;101951.53;;;2.34;84.22
73457;BME280;61691;53.072;6.582;2023-12-07T04:45:40;101941.19;;;2.31;84.33
73457;BME280;61691;53.072;6.582;2023-12-07T04:48:06;101963.75;;;2.33;84.28
73457;BME280;61691;53.072;6.582;2023-12-07T04:50:34;101947.50;;;2.25;84.46
73457;BME280;61691;53.072;6.582;2023-12-07T04:53:00;101936.59;;;2.13;84.16
73457;BME280;61691;53.072;6.582;2023-12-07T04:55:28;101956.13;;;2.27;84.65
73457;BME280;61691;53.072;6.582;2023-12-07T04:57:54;101945.78;;;2.24;84.60
73457;BME280;61691;53.072;6.582;2023-12-07T05:00:21;101941.59;;;2.19;84.33
73457;BME280;61691;53.072;6.582;2023-12-07T05:02:48;101930.63;;;2.09;84.45
73457;BME280;61691;53.072;6.582;2023-12-07T05:05:15;101952.19;;;2.16;84.31
73457;BME280;61691;53.072;6.582;2023-12-07T05:07:42;101924.00;;;1.99;84.52
73457;BME280;61691;53.072;6.582;2023-12-07T05:10:09;101948.66;;;2.17;84.36
73457;BME280;61691;53.072;6.582;2023-12-07T05:12:36;101883.06;;;1.73;84.66
73457;BME280;61691;53.072;6.582;2023-12-07T05:15:04;101928.06;;;2.08;84.59
73457;BME280;61691;53.072;6.582;2023-12-07T05:17:32;101893.16;;;1.84;84.55
73457;BME280;61691;53.072;6.582;2023-12-07T05:19:59;101918.78;;;1.99;84.42
73457;BME280;61691;53.072;6.582;2023-12-07T05:22:26;101943.31;;;2.20;84.70
73457;BME280;61691;53.072;6.582;2023-12-07T05:24:55;101941.72;;;2.16;84.52
73457;BME280;61691;53.072;6.582;2023-12-07T05:27:21;101946.84;;;2.19;84.90
73457;BME280;61691;53.072;6.582;2023-12-07T05:29:48;101926.34;;;2.07;84.76
73457;BME280;61691;53.072;6.582;2023-12-07T05:32:16;101927.16;;;2.09;84.60
73457;BME280;61691;53.072;6.582;2023-12-07T05:34:42;101927.94;;;2.11;84.95
73457;BME280;61691;53.072;6.582;2023-12-07T05:37:10;101944.16;;;2.20;84.50
73457;BME280;61691;53.072;6.582;2023-12-07T05:39:37;101922.84;;;2.08;84.57
73457;BME280;61691;53.072;6.582;2023-12-07T05:42:04;101937.44;;;2.13;84.66
73457;BME280;61691;53.072;6.582;2023-12-07T05:44:31;101950.38;;;2.18;84.48
73457;BME280;61691;53.072;6.582;2023-12-07T05:46:58;101935.22;;;2.03;84.90
73457;BME280;61691;53.072;6.582;2023-12-07T05:49:24;101947.06;;;2.13;84.65
73457;BME280;61691;53.072;6.582;2023-12-07T05:51:51;101946.38;;;2.08;84.86
73457;BME280;61691;53.072;6.582;2023-12-07T05:54:19;101937.03;;;2.01;84.52
73457;BME280;61691;53.072;6.582;2023-12-07T05:56:49;101931.84;;;1.99;84.80
73457;BME280;61691;53.072;6.582;2023-12-07T05:59:16;101948.03;;;2.10;84.79
73457;BME280;61691;53.072;6.582;2023-12-07T06:01:43;101955.03;;;2.10;84.90
73457;BME280;61691;53.072;6.582;2023-12-07T06:04:10;101920.84;;;1.89;84.67
73457;BME280;61691;53.072;6.582;2023-12-07T06:06:38;101957.63;;;2.10;84.66
73457;BME280;61691;53.072;6.582;2023-12-07T06:09:05;101931.03;;;1.97;84.41
73457;BME280;61691;53.072;6.582;2023-12-07T06:11:32;101948.19;;;2.06;84.57
73457;BME280;61691;53.072;6.582;2023-12-07T06:14:00;101932.78;;;1.97;84.44
73457;BME280;61691;53.072;6.582;2023-12-07T06:16:27;101957.81;;;2.04;84.45
73457;BME280;61691;53.072;6.582;2023-12-07T06:18:54;101933.91;;;1.89;84.69
73457;BME280;61691;53.072;6.582;2023-12-07T06:21:21;101950.91;;;2.03;84.47
73457;BME280;61691;53.072;6.582;2023-12-07T06:23:48;101922.72;;;1.86;84.84
73457;BME280;61691;53.072;6.582;2023-12-07T06:26:15;101893.63;;;1.70;84.77
73457;BME280;61691;53.072;6.582;2023-12-07T06:28:42;101932.97;;;1.92;84.74
73457;BME280;61691;53.072;6.582;2023-12-07T06:31:09;101906.50;;;1.76;84.67
73457;BME280;61691;53.072;6.582;2023-12-07T06:33:36;101904.69;;;1.78;84.47
73457;BME280;61691;53.072;6.582;2023-12-07T06:36:03;101949.28;;;1.99;84.81
73457;BME280;61691;53.072;6.582;2023-12-07T06:38:30;101952.81;;;1.98;84.85
73457;BME280;61691;53.072;6.582;2023-12-07T06:40:57;101948.63;;;1.93;84.64
73457;BME280;61691;53.072;6.582;2023-12-07T06:43:24;101931.56;;;1.82;84.56
73457;BME280;61691;53.072;6.582;2023-12-07T06:45:51;101923.81;;;1.80;84.59
73457;BME280;61691;53.072;6.582;2023-12-07T06:48:18;101959.75;;;1.99;84.87
73457;BME280;61691;53.072;6.582;2023-12-07T06:50:45;101968.28;;;2.04;85.05
73457;BME280;61691;53.072;6.582;2023-12-07T06:53:13;101969.16;;;2.04;84.82
73457;BME280;61691;53.072;6.582;2023-12-07T06:55:40;101979.50;;;2.07;85.00
73457;BME280;61691;53.072;6.582;2023-12-07T06:58:11;101967.50;;;2.02;84.95
73457;BME280;61691;53.072;6.582;2023-12-07T07:00:38;101959.75;;;1.99;84.76
73457;BME280;61691;53.072;6.582;2023-12-07T07:03:05;101957.94;;;2.01;85.04
73457;BME280;61691;53.072;6.582;2023-12-07T07:05:33;101911.13;;;1.68;84.37
73457;BME280;61691;53.072;6.582;2023-12-07T07:08:00;101973.47;;;2.05;84.70
73457;BME280;61691;53.072;6.582;2023-12-07T07:10:26;101955.56;;;1.94;84.71
73457;BME280;61691;53.072;6.582;2023-12-07T07:12:53;101964.09;;;2.00;84.90
73457;BME280;61691;53.072;6.582;2023-12-07T07:15:20;101970.97;;;2.02;84.92
73457;BME280;61691;53.072;6.582;2023-12-07T07:17:47;101940.97;;;1.87;84.94
73457;BME280;61691;53.072;6.582;2023-12-07T07:20:14;101956.34;;;1.97;84.68
73457;BME280;61691;53.072;6.582;2023-12-07T07:22:41;101944.28;;;1.92;85.17
73457;BME280;61691;53.072;6.582;2023-12-07T07:25:08;101981.09;;;2.11;84.66
73457;BME280;61691;53.072;6.582;2023-12-07T07:27:35;101959.28;;;2.12;84.69
73457;BME280;61691;53.072;6.582;2023-12-07T07:30:02;101943.25;;;1.97;85.00
73457;BME280;61691;53.072;6.582;2023-12-07T07:32:31;101903.41;;;1.65;84.84
73457;BME280;61691;53.072;6.582;2023-12-07T07:34:58;101969.06;;;2.07;85.01
73457;BME280;61691;53.072;6.582;2023-12-07T07:37:25;101971.41;;;2.15;84.83
73457;BME280;61691;53.072;6.582;2023-12-07T07:39:53;101984.44;;;2.16;84.81
73457;BME280;61691;53.072;6.582;2023-12-07T07:42:19;101980.16;;;2.14;84.64
73457;BME280;61691;53.072;6.582;2023-12-07T07:44:46;101974.09;;;2.12;84.97
73457;BME280;61691;53.072;6.582;2023-12-07T07:47:13;101971.50;;;2.12;85.10
73457;BME280;61691;53.072;6.582;2023-12-07T07:49:40;101971.72;;;2.06;84.70
73457;BME280;61691;53.072;6.582;2023-12-07T07:52:06;101987.31;;;2.09;85.00
73457;BME280;61691;53.072;6.582;2023-12-07T07:54:34;101962.63;;;1.91;84.57
73457;BME280;61691;53.072;6.582;2023-12-07T07:57:00;101989.22;;;2.04;84.78
73457;BME280;61691;53.072;6.582;2023-12-07T07:59:27;101980.88;;;1.92;84.53
73457;BME280;61691;53.072;6.582;2023-12-07T08:01:54;101950.25;;;1.71;84.56
73457;BME280;61691;53.072;6.582;2023-12-07T08:04:21;101989.53;;;1.94;84.63
73457;BME280;61691;53.072;6.582;2023-12-07T08:06:47;101939.22;;;1.62;84.67
73457;BME280;61691;53.072;6.582;2023-12-07T08:09:15;101954.63;;;1.71;84.66
73457;BME280;61691;53.072;6.582;2023-12-07T08:11:42;101973.94;;;1.91;84.51
73457;BME280;61691;53.072;6.582;2023-12-07T08:14:09;101965.50;;;1.83;85.05
73457;BME280;61691;53.072;6.582;2023-12-07T08:16:36;101972.44;;;1.84;85.21
73457;BME280;61691;53.072;6.582;2023-12-07T08:19:03;101979.19;;;1.91;84.95
73457;BME280;61691;53.072;6.582;2023-12-07T08:21:30;101991.13;;;1.99;84.82
73457;BME280;61691;53.072;6.582;2023-12-07T08:23:57;101980.97;;;1.89;84.42
73457;BME280;61691;53.072;6.582;2023-12-07T08:26:24;101955.16;;;1.80;84.81
73457;BME280;61691;53.072;6.582;2023-12-07T08:28:50;101948.28;;;1.78;85.11
73457;BME280;61691;53.072;6.582;2023-12-07T08:31:21;101986.75;;;1.99;84.90
73457;BME280;61691;53.072;6.582;2023-12-07T08:33:53;101963.69;;;1.85;84.93
73457;BME280;61691;53.072;6.582;2023-12-07T08:36:20;101981.69;;;1.94;84.93
73457;BME280;61691;53.072;6.582;2023-12-07T08:38:48;101981.69;;;1.94;84.70
73457;BME280;61691;53.072;6.582;2023-12-07T08:41:14;101985.00;;;2.00;85.06
73457;BME280;61691;53.072;6.582;2023-12-07T08:43:41;101966.19;;;1.88;84.98
73457;BME280;61691;53.072;6.582;2023-12-07T08:46:08;101973.03;;;1.92;84.67
73457;BME280;61691;53.072;6.582;2023-12-07T08:48:38;101986.53;;;2.05;84.77
73457;BME280;61691;53.072;6.582;2023-12-07T08:51:09;101944.72;;;1.80;85.15
73457;BME280;61691;53.072;6.582;2023-12-07T08:53:36;101961.69;;;1.93;84.78
73457;BME280;61691;53.072;6.582;2023-12-07T08:56:03;101986.34;;;2.11;84.82
73457;BME280;61691;53.072;6.582;2023-12-07T08:58:30;101985.47;;;2.11;85.07
73457;BME280;61691;53.072;6.582;2023-12-07T09:00:57;101929.97;;;1.78;84.69
73457;BME280;61691;53.072;6.582;2023-12-07T09:03:24;101951.44;;;1.87;84.85
73457;BME280;61691;53.072;6.582;2023-12-07T09:05:54;101953.25;;;1.85;84.85
73457;BME280;61691;53.072;6.582;2023-12-07T09:08:21;101914.75;;;1.64;84.91
73457;BME280;61691;53.072;6.582;2023-12-07T09:10:48;101982.16;;;2.06;84.48
73457;BME280;61691;53.072;6.582;2023-12-07T09:13:17;101994.25;;;2.10;84.64
73457;BME280;61691;53.072;6.582;2023-12-07T09:15:44;101986.34;;;2.11;84.88
73457;BME280;61691;53.072;6.582;2023-12-07T09:18:11;101982.53;;;2.20;84.87
73457;BME280;61691;53.072;6.582;2023-12-07T09:20:41;101989.53;;;2.44;85.58
73457;BME280;61691;53.072;6.582;2023-12-07T09:23:13;101997.75;;;2.58;85.02
73457;BME280;61691;53.072;6.582;2023-12-07T09:25:42;101981.47;;;2.50;85.17
73457;BME280;61691;53.072;6.582;2023-12-07T09:28:09;101992.53;;;2.58;84.58
73457;BME280;61691;53.072;6.582;2023-12-07T09:30:36;101997.88;;;2.55;84.92
73457;BME280;61691;53.072;6.582;2023-12-07T09:33:03;101968.84;;;2.38;84.70
73457;BME280;61691;53.072;6.582;2023-12-07T09:35:30;101992.41;;;2.61;84.82
73457;BME280;61691;53.072;6.582;2023-12-07T09:37:57;101998.28;;;2.91;85.25
73457;BME280;61691;53.072;6.582;2023-12-07T09:40:24;101986.69;;;3.20;85.78
73457;BME280;61691;53.072;6.582;2023-12-07T09:42:52;101989.75;;;3.31;84.65
73457;BME280;61691;53.072;6.582;2023-12-07T09:45:19;102007.16;;;3.32;83.77
73457;BME280;61691;53.072;6.582;2023-12-07T09:47:49;101995.72;;;3.13;83.76
73457;BME280;61691;53.072;6.582;2023-12-07T09:50:21;101983.16;;;2.99;83.65
73457;BME280;61691;53.072;6.582;2023-12-07T09:52:49;101988.09;;;2.84;83.48
73457;BME280;61691;53.072;6.582;2023-12-07T09:55:30;101973.97;;;2.64;83.90
73457;BME280;61691;53.072;6.582;2023-12-07T09:57:58;101951.09;;;2.46;84.12
73457;BME280;61691;53.072;6.582;2023-12-07T10:00:24;101978.53;;;2.59;84.26
73457;BME280;61691;53.072;6.582;2023-12-07T10:02:52;101953.13;;;2.38;84.09
73457;BME280;61691;53.072;6.582;2023-12-07T10:05:21;101984.00;;;2.53;84.40
73457;BME280;61691;53.072;6.582;2023-12-07T10:07:49;101981.09;;;2.61;84.16
73457;BME280;61691;53.072;6.582;2023-12-07T10:10:18;101963.03;;;2.53;84.37
73457;BME280;61691;53.072;6.582;2023-12-07T10:12:56;101978.44;;;2.62;84.52
73457;BME280;61691;53.072;6.582;2023-12-07T10:15:24;101969.44;;;2.69;84.54
73457;BME280;61691;53.072;6.582;2023-12-07T10:17:56;101972.72;;;2.75;84.39
73457;BME280;61691;53.072;6.582;2023-12-07T10:20:25;101976.16;;;2.77;84.80
73457;BME280;61691;53.072;6.582;2023-12-07T10:23:05;101969.06;;;2.79;84.51
73457;BME280;61691;53.072;6.582;2023-12-07T10:25:38;101935.59;;;2.63;84.70
73457;BME280;61691;53.072;6.582;2023-12-07T10:28:07;101931.94;;;2.69;84.64
73457;BME280;61691;53.072;6.582;2023-12-07T10:30:35;101915.59;;;2.62;84.92
73457;BME280;61691;53.072;6.582;2023-12-07T10:33:05;101938.44;;;2.81;84.80
73457;BME280;61691;53.072;6.582;2023-12-07T10:35:40;101949.69;;;2.84;84.83
73457;BME280;61691;53.072;6.582;2023-12-07T10:38:08;101971.19;;;2.92;85.00
73457;BME280;61691;53.072;6.582;2023-12-07T10:40:35;101964.06;;;2.96;85.16
73457;BME280;61691;53.072;6.582;2023-12-07T10:43:05;101939.13;;;2.86;84.64
73457;BME280;61691;53.072;6.582;2023-12-07T10:45:33;101921.78;;;2.83;84.88
73457;BME280;61691;53.072;6.582;2023-12-07T10:48:06;101950.00;;;2.98;85.16
73457;BME280;61691;53.072;6.582;2023-12-07T10:50:38;101944.56;;;3.03;85.01
73457;BME280;61691;53.072;6.582;2023-12-07T10:53:11;101940.38;;;2.99;85.33
73457;BME280;61691;53.072;6.582;2023-12-07T10:55:46;101935.81;;;3.04;84.93
73457;BME280;61691;53.072;6.582;2023-12-07T10:58:16;101941.84;;;3.06;85.25
73457;BME280;61691;53.072;6.582;2023-12-07T11:00:44;101935.69;;;3.07;84.74
73457;BME280;61691;53.072;6.582;2023-12-07T11:03:15;101882.75;;;2.77;84.96
73457;BME280;61691;53.072;6.582;2023-12-07T11:05:49;101926.25;;;3.03;85.35
73457;BME280;61691;53.072;6.582;2023-12-07T11:08:26;101936.47;;;3.09;84.92
73457;BME280;61691;53.072;6.582;2023-12-07T11:11:00;101933.75;;;3.12;85.02
73457;BME280;61691;53.072;6.582;2023-12-07T11:13:30;101874.81;;;2.79;84.74
73457;BME280;61691;53.072;6.582;2023-12-07T11:15:58;101862.75;;;2.75;85.17
73457;BME280;61691;53.072;6.582;2023-12-07T11:18:26;101925.63;;;3.18;85.03
73457;BME280;61691;53.072;6.582;2023-12-07T11:20:55;101929.31;;;3.14;85.02
73457;BME280;61691;53.072;6.582;2023-12-07T11:23:22;101938.06;;;3.13;84.48
73457;BME280;61691;53.072;6.582;2023-12-07T11:25:52;101898.94;;;2.87;84.58
73457;BME280;61691;53.072;6.582;2023-12-07T11:28:34;101900.09;;;2.80;84.63
73457;BME280;61691;53.072;6.582;2023-12-07T11:31:02;101916.34;;;2.88;84.34
73457;BME280;61691;53.072;6.582;2023-12-07T11:33:29;101913.13;;;2.81;84.27
73457;BME280;61691;53.072;6.582;2023-12-07T11:36:05;101914.16;;;2.77;84.27
73457;BME280;61691;53.072;6.582;2023-12-07T11:38:33;101885.03;;;2.63;84.47
73457;BME280;61691;53.072;6.582;2023-12-07T11:41:00;101865.66;;;2.45;84.16
73457;BME280;61691;53.072;6.582;2023-12-07T11:45:57;101842.34;;;2.16;84.58
73457;BME280;61691;53.072;6.582;2023-12-07T11:48:24;101899.38;;;2.53;84.63
73457;BME280;61691;53.072;6.582;2023-12-07T11:50:55;101901.94;;;2.54;84.57
73457;BME280;61691;53.072;6.582;2023-12-07T11:53:27;101901.81;;;2.57;84.72
73457;BME280;61691;53.072;6.582;2023-12-07T11:55:57;101899.16;;;2.59;84.94
73457;BME280;61691;53.072;6.582;2023-12-07T11:58:28;101894.25;;;2.50;84.72
73457;BME280;61691;53.072;6.582;2023-12-07T12:00:55;101876.34;;;2.39;84.92
73457;BME280;61691;53.072;6.582;2023-12-07T12:03:24;101893.47;;;2.48;85.13
73457;BME280;61691;53.072;6.582;2023-12-07T12:05:51;101896.81;;;2.51;84.93
73457;BME280;61691;53.072;6.582;2023-12-07T12:08:19;101895.09;;;2.50;84.96
73457;BME280;61691;53.072;6.582;2023-12-07T12:10:47;101878.97;;;2.39;85.03
73457;BME280;61691;53.072;6.582;2023-12-07T12:13:16;101849.03;;;2.23;84.96
73457;BME280;61691;53.072;6.582;2023-12-07T12:15:43;101862.69;;;2.31;85.02
73457;BME280;61691;53.072;6.582;2023-12-07T12:18:09;101875.34;;;2.42;84.93
73457;BME280;61691;53.072;6.582;2023-12-07T12:20:36;101844.44;;;2.29;84.87
73457;BME280;61691;53.072;6.582;2023-12-07T12:23:03;101874.41;;;2.44;84.85
73457;BME280;61691;53.072;6.582;2023-12-07T12:25:30;101833.44;;;2.20;85.01
73457;BME280;61691;53.072;6.582;2023-12-07T12:28:02;101876.13;;;2.45;85.35
73457;BME280;61691;53.072;6.582;2023-12-07T12:30:30;101869.91;;;2.48;85.06
73457;BME280;61691;53.072;6.582;2023-12-07T12:32:57;101860.66;;;2.39;85.23
73457;BME280;61691;53.072;6.582;2023-12-07T12:35:26;101877.91;;;2.43;84.79
73457;BME280;61691;53.072;6.582;2023-12-07T12:37:54;101860.03;;;2.32;85.04
73457;BME280;61691;53.072;6.582;2023-12-07T12:40:23;101862.56;;;2.34;84.89
73457;BME280;61691;53.072;6.582;2023-12-07T12:42:52;101853.94;;;2.32;85.27
73457;BME280;61691;53.072;6.582;2023-12-07T12:45:23;101824.81;;;2.18;85.28
73457;BME280;61691;53.072;6.582;2023-12-07T12:47:52;101796.91;;;1.95;85.32
73457;BME280;61691;53.072;6.582;2023-12-07T12:50:37;101838.81;;;2.17;85.35
73457;BME280;61691;53.072;6.582;2023-12-07T12:53:08;101826.75;;;2.13;85.50
73457;BME280;61691;53.072;6.582;2023-12-07T12:55:38;101805.56;;;1.95;85.43
73457;BME280;61691;53.072;6.582;2023-12-07T12:58:09;101807.41;;;1.93;85.42
73457;BME280;61691;53.072;6.582;2023-12-07T13:00:39;101800.47;;;1.92;85.49
73457;BME280;61691;53.072;6.582;2023-12-07T13:03:06;101802.75;;;2.02;85.58
73457;BME280;61691;53.072;6.582;2023-12-07T13:05:34;101815.28;;;2.17;85.52
73457;BME280;61691;53.072;6.582;2023-12-07T13:08:02;101776.72;;;1.99;85.46
73457;BME280;61691;53.072;6.582;2023-12-07T13:10:31;101813.44;;;2.19;85.79
73457;BME280;61691;53.072;6.582;2023-12-07T13:13:00;101799.72;;;2.12;86.03